createdAt,value
2019-03-26T00:00:16.305Z,4.60
2019-03-26T00:02:45.477Z,4.60
2019-03-26T00:05:14.582Z,4.60
2019-03-26T00:08:02.484Z,4.60
2019-03-26T00:10:43.305Z,4.60
2019-03-26T00:16:21.633Z,4.60
2019-03-26T00:18:52.449Z,4.50
2019-03-26T00:21:21.821Z,4.50
2019-03-26T00:23:51.115Z,4.40
2019-03-26T00:26:20.439Z,4.40
2019-03-26T00:28:51.094Z,4.40
2019-03-26T00:31:22.235Z,4.40
2019-03-26T00:33:52.824Z,4.40
2019-03-26T00:36:22.045Z,4.30
2019-03-26T00:38:51.178Z,4.30
2019-03-26T00:41:20.412Z,4.30
2019-03-26T00:43:49.556Z,4.40
2019-03-26T00:46:18.761Z,4.40
2019-03-26T00:48:47.995Z,4.40
2019-03-26T00:51:17.135Z,4.50
2019-03-26T00:53:46.288Z,4.50
2019-03-26T00:56:15.433Z,4.60
2019-03-26T00:58:44.569Z,4.50
2019-03-26T01:01:13.734Z,4.50
2019-03-26T01:03:42.889Z,4.60
2019-03-26T01:06:12.427Z,4.60
2019-03-26T01:08:41.537Z,4.60
2019-03-26T01:11:10.695Z,4.60
2019-03-26T01:13:39.869Z,4.60
2019-03-26T01:16:09.066Z,4.60
2019-03-26T01:18:38.266Z,4.50
2019-03-26T01:21:07.508Z,4.50
2019-03-26T01:23:36.760Z,4.60
2019-03-26T01:26:06.026Z,4.60
2019-03-26T01:28:35.225Z,4.60
2019-03-26T01:31:04.506Z,4.40
2019-03-26T01:33:33.653Z,4.40
2019-03-26T01:36:02.824Z,4.50
2019-03-26T01:38:31.988Z,4.50
2019-03-26T01:41:01.156Z,4.50
2019-03-26T01:43:30.302Z,4.60
2019-03-26T01:45:59.470Z,4.70
2019-03-26T01:48:28.613Z,4.80
2019-03-26T01:50:57.776Z,5.00
2019-03-26T01:53:26.868Z,5.00
2019-03-26T01:55:56.090Z,5.10
2019-03-26T01:58:25.226Z,5.20
2019-03-26T02:00:54.410Z,5.30
2019-03-26T02:03:23.507Z,5.30
2019-03-26T02:05:54.665Z,5.40
2019-03-26T02:08:23.486Z,5.50
2019-03-26T02:10:52.654Z,5.60
2019-03-26T02:13:21.786Z,5.50
2019-03-26T02:15:50.998Z,5.60
2019-03-26T02:18:20.159Z,5.60
2019-03-26T02:20:49.306Z,5.60
2019-03-26T02:23:18.473Z,5.70
2019-03-26T02:25:47.879Z,5.80
2019-03-26T02:28:17.128Z,5.80
2019-03-26T02:30:46.245Z,5.80
2019-03-26T02:33:15.443Z,5.80
2019-03-26T02:35:44.845Z,5.80
2019-03-26T02:38:14.087Z,5.90
2019-03-26T02:40:45.110Z,6.00
2019-03-26T02:43:14.207Z,6.00
2019-03-26T02:45:43.498Z,6.00
2019-03-26T02:48:12.664Z,6.00
2019-03-26T02:50:42.147Z,6.00
2019-03-26T02:53:11.622Z,6.10
2019-03-26T02:55:40.765Z,6.00
2019-03-26T02:58:09.993Z,6.00
2019-03-26T03:00:39.240Z,6.00
2019-03-26T03:03:08.411Z,6.00
2019-03-26T03:05:37.562Z,6.00
2019-03-26T03:08:06.810Z,5.90
2019-03-26T03:10:36.306Z,6.00
2019-03-26T03:13:05.515Z,5.90
2019-03-26T03:15:34.599Z,6.00
2019-03-26T03:18:03.770Z,5.90
2019-03-26T03:20:38.543Z,5.80
2019-03-26T03:23:07.642Z,5.70
2019-03-26T03:25:36.778Z,5.60
2019-03-26T03:28:05.926Z,5.60
2019-03-26T03:30:35.019Z,5.40
2019-03-26T03:33:04.205Z,5.40
2019-03-26T03:35:33.411Z,5.40
2019-03-26T03:38:02.599Z,5.40
2019-03-26T03:40:31.749Z,5.40
2019-03-26T03:43:00.851Z,5.40
2019-03-26T03:45:30.413Z,5.40
2019-03-26T03:48:00.611Z,5.30
2019-03-26T03:50:30.202Z,5.20
2019-03-26T03:53:01.021Z,5.30
2019-03-26T03:55:31.133Z,5.20
2019-03-26T03:58:00.759Z,5.30
2019-03-26T04:00:35.432Z,5.30
2019-03-26T04:03:05.659Z,5.30
2019-03-26T04:05:35.313Z,5.30
2019-03-26T04:08:04.619Z,5.20
2019-03-26T04:10:33.785Z,5.20
2019-03-26T04:13:02.947Z,5.20
2019-03-26T04:15:34.862Z,5.10
2019-03-26T04:18:04.176Z,5.10
2019-03-26T04:20:35.907Z,5.10
2019-03-26T04:23:05.135Z,5.10
2019-03-26T04:25:34.860Z,5.00
2019-03-26T04:28:04.054Z,5.10
2019-03-26T04:30:33.398Z,5.00
2019-03-26T04:33:02.450Z,5.10
2019-03-26T04:35:31.614Z,5.10
2019-03-26T04:38:00.733Z,5.20
2019-03-26T04:40:29.834Z,5.30
2019-03-26T04:43:01.666Z,5.40
2019-03-26T04:45:30.776Z,5.40
2019-03-26T04:47:59.855Z,5.50
2019-03-26T04:50:28.928Z,5.40
2019-03-26T04:52:59.552Z,5.40
2019-03-26T04:55:28.630Z,5.50
2019-03-26T04:57:57.696Z,5.40
2019-03-26T05:00:26.787Z,5.50
2019-03-26T05:02:55.917Z,5.50
2019-03-26T05:05:24.977Z,5.40
2019-03-26T05:07:54.112Z,5.40
2019-03-26T05:10:23.170Z,5.20
2019-03-26T05:12:52.285Z,5.30
2019-03-26T05:15:21.405Z,5.20
2019-03-26T05:17:50.537Z,5.20
2019-03-26T05:20:19.581Z,5.20
2019-03-26T05:22:48.663Z,5.20
2019-03-26T05:25:17.738Z,5.30
2019-03-26T05:27:46.817Z,5.40
2019-03-26T05:30:16.295Z,5.40
2019-03-26T05:32:45.373Z,5.50
2019-03-26T05:35:14.559Z,5.30
2019-03-26T05:37:43.620Z,5.20
2019-03-26T05:40:12.969Z,5.10
2019-03-26T05:42:42.023Z,5.20
2019-03-26T05:45:12.298Z,5.20
2019-03-26T05:47:41.362Z,5.20
2019-03-26T05:50:10.853Z,5.30
2019-03-26T05:52:40.013Z,5.20
2019-03-26T05:55:09.478Z,5.20
2019-03-26T05:57:38.561Z,5.10
2019-03-26T06:00:11.752Z,5.50
2019-03-26T06:02:40.937Z,6.00
2019-03-26T06:05:10.043Z,6.30
2019-03-26T06:07:39.206Z,6.50
2019-03-26T06:10:09.525Z,6.30
2019-03-26T06:12:38.798Z,6.20
2019-03-26T06:15:09.321Z,6.50
2019-03-26T06:17:38.493Z,6.50
2019-03-26T06:20:09.118Z,6.50
2019-03-26T06:22:38.522Z,6.20
2019-03-26T06:25:08.003Z,6.20
2019-03-26T06:27:37.113Z,6.20
2019-03-26T06:30:10.149Z,6.20
2019-03-26T06:32:39.360Z,6.30
2019-03-26T06:35:10.345Z,6.30
2019-03-26T06:37:39.613Z,6.50
2019-03-26T06:40:10.835Z,6.60
2019-03-26T06:42:43.063Z,6.90
2019-03-26T06:45:12.574Z,7.30
2019-03-26T06:47:41.701Z,7.30
2019-03-26T06:50:12.143Z,7.40
2019-03-26T06:52:42.335Z,7.30
2019-03-26T06:55:13.658Z,7.20
2019-03-26T06:57:42.846Z,7.10
2019-03-26T07:00:13.314Z,7.10
2019-03-26T07:02:43.263Z,7.50
2019-03-26T07:05:12.580Z,7.40
2019-03-26T07:07:41.710Z,7.50
2019-03-26T07:10:11.183Z,7.60
2019-03-26T07:12:40.266Z,7.70
2019-03-26T07:15:10.320Z,7.80
2019-03-26T07:17:39.580Z,8.40
2019-03-26T07:20:09.063Z,9.00
2019-03-26T07:22:38.606Z,9.30
2019-03-26T07:25:09.378Z,9.20
2019-03-26T07:27:42.173Z,8.90
2019-03-26T07:30:13.744Z,9.30
2019-03-26T07:32:42.830Z,9.30
2019-03-26T07:35:12.219Z,9.20
2019-03-26T07:37:45.474Z,9.30
2019-03-26T07:40:12.315Z,9.40
2019-03-26T07:42:41.398Z,9.10
2019-03-26T07:45:10.619Z,9.00
2019-03-26T07:47:39.700Z,8.70
2019-03-26T07:50:08.912Z,8.60
2019-03-26T07:52:38.065Z,8.40
2019-03-26T07:55:08.185Z,8.40
2019-03-26T07:57:37.275Z,8.50
2019-03-26T08:00:08.851Z,8.70
2019-03-26T08:02:38.013Z,9.50
2019-03-26T08:05:08.785Z,9.30
2019-03-26T08:07:37.937Z,9.50
2019-03-26T08:10:08.365Z,9.00
2019-03-26T08:12:37.517Z,8.50
2019-03-26T08:15:08.159Z,8.60
2019-03-26T08:17:37.546Z,8.70
2019-03-26T08:20:08.888Z,9.00
2019-03-26T08:22:37.955Z,9.00
2019-03-26T08:25:07.577Z,9.00
2019-03-26T08:27:36.718Z,8.80
2019-03-26T08:30:08.962Z,8.50
2019-03-26T08:32:38.255Z,8.60
2019-03-26T08:35:07.727Z,8.70
2019-03-26T08:37:36.893Z,8.50
2019-03-26T08:40:09.056Z,8.60
2019-03-26T08:42:38.203Z,8.60
2019-03-26T08:45:08.214Z,9.20
2019-03-26T08:47:37.345Z,9.20
2019-03-26T08:50:08.262Z,9.50
2019-03-26T08:52:37.417Z,9.70
2019-03-26T08:55:09.669Z,9.40
2019-03-26T08:57:38.862Z,9.70
2019-03-26T09:00:10.441Z,9.90
2019-03-26T09:02:39.574Z,10.10
2019-03-26T09:05:08.891Z,10.00
2019-03-26T09:07:37.962Z,10.40
2019-03-26T09:10:10.030Z,10.30
2019-03-26T09:12:39.603Z,10.20
2019-03-26T09:15:14.149Z,10.00
2019-03-26T09:17:44.376Z,10.00
2019-03-26T09:20:13.351Z,9.90
2019-03-26T09:22:42.570Z,10.10
2019-03-26T09:25:12.688Z,10.40
2019-03-26T09:27:41.757Z,10.70
2019-03-26T09:30:12.382Z,11.20
2019-03-26T09:32:41.850Z,11.00
2019-03-26T09:35:11.406Z,10.90
2019-03-26T09:37:40.554Z,10.40
2019-03-26T09:40:10.450Z,10.40
2019-03-26T09:42:39.644Z,10.60
2019-03-26T09:45:10.159Z,10.90
2019-03-26T09:47:39.335Z,10.80
2019-03-26T09:50:10.612Z,10.30
2019-03-26T09:52:39.760Z,10.10
2019-03-26T09:55:09.198Z,10.00
2019-03-26T09:57:38.424Z,9.60
2019-03-26T10:00:09.669Z,9.40
2019-03-26T10:02:38.743Z,9.40
2019-03-26T10:05:09.041Z,9.20
2019-03-26T10:07:38.194Z,9.20
2019-03-26T10:10:09.367Z,9.20
2019-03-26T10:12:38.527Z,9.20
2019-03-26T10:15:09.338Z,9.10
2019-03-26T10:17:38.575Z,9.10
2019-03-26T10:20:08.474Z,9.20
2019-03-26T10:22:38.081Z,9.00
2019-03-26T10:25:10.721Z,9.00
2019-03-26T10:27:38.526Z,9.20
2019-03-26T10:30:08.863Z,9.50
2019-03-26T10:32:38.141Z,10.40
2019-03-26T10:35:07.682Z,11.10
2019-03-26T10:37:36.753Z,11.30
2019-03-26T10:40:07.167Z,11.80
2019-03-26T10:42:36.288Z,11.20
2019-03-26T10:45:06.885Z,11.00
2019-03-26T10:47:36.052Z,10.50
2019-03-26T10:50:06.643Z,10.30
2019-03-26T10:52:35.808Z,10.00
2019-03-26T10:55:06.274Z,10.20
2019-03-26T10:57:35.726Z,10.40
2019-03-26T11:00:06.783Z,10.50
2019-03-26T11:02:35.874Z,10.40
2019-03-26T11:05:06.580Z,10.60
2019-03-26T11:07:35.642Z,10.50
2019-03-26T11:10:06.796Z,10.30
2019-03-26T11:12:35.941Z,10.10
2019-03-26T11:15:10.380Z,10.00
2019-03-26T11:17:39.862Z,10.10
2019-03-26T11:20:10.168Z,10.10
2019-03-26T11:22:39.510Z,9.80
2019-03-26T11:25:12.113Z,9.60
2019-03-26T11:27:40.625Z,9.50
2019-03-26T11:30:10.291Z,9.60
2019-03-26T11:32:39.531Z,9.70
2019-03-26T11:35:09.281Z,10.00
2019-03-26T11:37:39.204Z,10.00
2019-03-26T11:40:10.631Z,10.10
2019-03-26T11:42:43.739Z,10.10
2019-03-26T11:45:13.593Z,10.20
2019-03-26T11:47:42.790Z,10.40
2019-03-26T11:50:12.034Z,10.40
2019-03-26T11:52:43.340Z,10.40
2019-03-26T11:55:12.957Z,10.20
2019-03-26T11:57:42.032Z,10.40
2019-03-26T12:00:15.184Z,10.00
2019-03-26T12:02:44.266Z,9.90
2019-03-26T12:05:13.693Z,9.90
2019-03-26T12:07:43.121Z,10.30
2019-03-26T12:10:13.338Z,10.60
2019-03-26T12:12:42.954Z,10.80
2019-03-26T12:15:12.635Z,11.00
2019-03-26T12:17:41.709Z,11.70
2019-03-26T12:20:13.653Z,11.90
2019-03-26T12:22:42.722Z,11.50
2019-03-26T12:25:11.918Z,11.40
2019-03-26T12:27:41.017Z,11.30
2019-03-26T12:30:10.547Z,11.10
2019-03-26T12:32:40.989Z,11.10
2019-03-26T12:35:13.525Z,10.80
2019-03-26T12:37:42.590Z,10.40
2019-03-26T12:40:12.367Z,10.30
2019-03-26T12:42:42.450Z,10.40
2019-03-26T12:45:11.690Z,10.30
2019-03-26T12:47:40.849Z,10.20
2019-03-26T12:50:10.111Z,10.40
2019-03-26T12:52:39.163Z,10.40
2019-03-26T12:55:08.418Z,10.30
2019-03-26T12:57:37.505Z,10.20
2019-03-26T13:00:07.700Z,10.10
2019-03-26T13:02:40.816Z,10.30
2019-03-26T13:05:07.829Z,10.60
2019-03-26T13:07:36.885Z,10.90
2019-03-26T13:10:14.172Z,11.40
2019-03-26T13:12:39.169Z,11.70
2019-03-26T13:15:08.952Z,12.00
2019-03-26T13:17:38.096Z,11.60
2019-03-26T13:20:07.283Z,11.40
2019-03-26T13:22:36.434Z,11.50
2019-03-26T13:25:08.289Z,11.90
2019-03-26T13:27:37.395Z,12.00
2019-03-26T13:30:07.668Z,12.10
2019-03-26T13:32:36.809Z,12.10
2019-03-26T13:35:09.150Z,11.90
2019-03-26T13:37:40.286Z,12.00
2019-03-26T13:40:09.502Z,11.60
2019-03-26T13:42:38.554Z,11.60
2019-03-26T13:45:08.426Z,11.20
2019-03-26T13:47:37.510Z,10.80
2019-03-26T13:50:07.623Z,10.70
2019-03-26T13:52:36.686Z,10.60
2019-03-26T13:55:09.708Z,10.70
2019-03-26T13:57:38.803Z,11.10
2019-03-26T14:00:11.523Z,10.60
2019-03-26T14:02:40.579Z,10.60
2019-03-26T14:05:24.318Z,10.70
2019-03-26T14:07:53.278Z,10.50
2019-03-26T14:10:22.410Z,10.60
2019-03-26T14:12:51.547Z,10.50
2019-03-26T14:15:20.702Z,10.60
2019-03-26T14:17:49.768Z,10.40
2019-03-26T14:20:19.037Z,10.50
2019-03-26T14:22:48.162Z,10.30
2019-03-26T14:25:17.289Z,10.40
2019-03-26T14:27:46.350Z,10.20
2019-03-26T14:30:16.052Z,10.20
2019-03-26T14:32:45.190Z,10.20
2019-03-26T14:35:14.396Z,9.90
2019-03-26T14:37:51.158Z,9.80
2019-03-26T14:40:14.555Z,9.80
2019-03-26T14:42:43.633Z,9.70
2019-03-26T14:45:12.893Z,9.90
2019-03-26T14:47:42.032Z,9.80
2019-03-26T14:50:11.182Z,9.70
2019-03-26T14:52:40.277Z,9.50
2019-03-26T14:55:09.634Z,9.50
2019-03-26T14:57:38.678Z,9.50
2019-03-26T15:00:08.226Z,9.60
2019-03-26T15:02:37.274Z,9.50
2019-03-26T15:05:08.346Z,9.50
2019-03-26T15:07:37.453Z,9.40
2019-03-26T15:10:07.591Z,9.40
2019-03-26T15:12:36.629Z,9.40
2019-03-26T15:15:06.304Z,9.50
2019-03-26T15:17:35.412Z,9.40
2019-03-26T15:20:06.163Z,9.70
2019-03-26T15:22:35.202Z,9.80
2019-03-26T15:31:56.291Z,9.70
2019-03-26T15:34:36.052Z,9.60
2019-03-26T15:36:58.202Z,9.60
2019-03-26T15:39:29.955Z,9.60
2019-03-26T15:41:59.197Z,9.60
2019-03-26T15:44:28.337Z,9.40
2019-03-26T15:46:57.520Z,9.40
2019-03-26T15:49:26.651Z,9.40
2019-03-26T15:51:55.788Z,9.20
2019-03-26T15:54:24.949Z,9.20
2019-03-26T15:56:54.098Z,9.10
2019-03-26T15:59:23.166Z,9.00
2019-03-26T16:01:52.292Z,9.10
2019-03-26T16:04:21.362Z,9.10
2019-03-26T16:07:32.964Z,9.10
2019-03-26T16:09:23.972Z,9.00
2019-03-26T16:11:53.114Z,9.10
2019-03-26T16:14:22.248Z,9.00
2019-03-26T16:16:51.308Z,9.00
2019-03-26T16:19:32.233Z,9.00
2019-03-26T16:21:51.216Z,9.20
2019-03-26T16:24:20.281Z,9.10
2019-03-26T16:26:49.337Z,9.10
2019-03-26T16:29:18.606Z,9.30
2019-03-26T16:31:47.697Z,9.30
2019-03-26T16:34:16.764Z,9.30
2019-03-26T16:36:58.531Z,9.20
2019-03-26T16:39:16.645Z,9.20
2019-03-26T16:41:49.360Z,9.10
2019-03-26T16:44:16.579Z,9.20
2019-03-26T16:46:45.717Z,9.20
2019-03-26T16:49:14.945Z,9.10
2019-03-26T16:51:44.075Z,9.10
2019-03-26T16:54:13.205Z,8.90
2019-03-26T16:56:42.323Z,8.90
2019-03-26T16:59:11.411Z,8.70
2019-03-26T17:01:40.562Z,8.70
2019-03-26T17:04:09.709Z,8.70
2019-03-26T17:06:38.832Z,8.70
2019-03-26T17:09:08.346Z,8.70
2019-03-26T17:11:37.538Z,8.60
2019-03-26T17:14:06.698Z,8.60
2019-03-26T17:16:35.836Z,8.50
2019-03-26T17:19:05.023Z,8.50
2019-03-26T17:21:34.173Z,8.40
2019-03-26T17:24:03.342Z,8.50
2019-03-26T17:26:32.579Z,8.50
2019-03-26T17:29:01.728Z,8.50
2019-03-26T17:31:30.790Z,8.30
2019-03-26T17:33:59.894Z,8.30
2019-03-26T17:36:29.020Z,8.40
2019-03-26T17:38:58.082Z,8.40
2019-03-26T17:41:27.195Z,8.30
2019-03-26T17:43:56.413Z,8.40
2019-03-26T17:46:25.547Z,8.20
2019-03-26T17:48:54.672Z,8.20
2019-03-26T17:51:23.781Z,8.10
2019-03-26T17:53:52.848Z,8.10
2019-03-26T17:56:22.016Z,8.10
2019-03-26T17:58:51.223Z,8.10
2019-03-26T18:01:20.336Z,8.10
2019-03-26T18:03:49.578Z,8.20
2019-03-26T18:06:18.680Z,8.00
2019-03-26T18:08:47.756Z,8.10
2019-03-26T18:11:16.821Z,8.10
2019-03-26T18:13:46.121Z,8.20
2019-03-26T18:16:15.205Z,8.20
2019-03-26T18:18:45.876Z,8.20
2019-03-26T18:21:14.944Z,8.10
2019-03-26T18:23:44.048Z,8.10
2019-03-26T18:26:14.939Z,8.10
2019-03-26T18:28:44.054Z,8.00
2019-03-26T18:31:13.174Z,8.00
2019-03-26T18:33:42.205Z,7.90
2019-03-26T18:36:13.068Z,7.80
2019-03-26T18:38:42.128Z,7.80
2019-03-26T18:41:11.166Z,7.80
2019-03-26T18:43:40.227Z,7.80
2019-03-26T18:46:09.344Z,7.70
2019-03-26T18:48:41.381Z,7.80
2019-03-26T18:51:09.397Z,7.70
2019-03-26T18:53:38.445Z,7.80
2019-03-26T18:56:07.521Z,7.60
2019-03-26T18:58:36.579Z,7.70
2019-03-26T19:01:05.624Z,7.60
2019-03-26T19:03:34.682Z,7.60
2019-03-26T19:06:04.100Z,7.60
2019-03-26T19:08:33.209Z,7.60
2019-03-26T19:11:02.282Z,7.50
2019-03-26T19:13:31.323Z,7.60
2019-03-26T19:16:00.440Z,7.50
2019-03-26T19:18:29.552Z,7.50
2019-03-26T19:21:02.330Z,7.50
2019-03-26T19:23:29.465Z,7.60
2019-03-26T19:25:58.526Z,7.60
2019-03-26T19:28:27.573Z,7.50
2019-03-26T19:30:56.660Z,7.50
2019-03-26T19:33:25.733Z,7.60
2019-03-26T19:35:54.795Z,7.50
2019-03-26T19:38:23.861Z,7.50
2019-03-26T19:40:52.977Z,7.60
2019-03-26T19:43:22.021Z,7.70
2019-03-26T19:45:51.143Z,7.60
2019-03-26T19:48:20.241Z,7.60
2019-03-26T19:50:49.323Z,7.70
2019-03-26T19:53:18.439Z,7.70
2019-03-26T19:55:47.481Z,7.70
2019-03-26T19:58:16.558Z,7.70
2019-03-26T20:00:45.677Z,7.70
2019-03-26T20:03:14.750Z,7.70
2019-03-26T20:05:43.798Z,7.70
2019-03-26T20:08:12.955Z,7.80
2019-03-26T20:10:41.986Z,7.70
2019-03-26T20:13:23.283Z,7.70
2019-03-26T20:15:41.861Z,7.70
2019-03-26T20:18:10.931Z,7.80
2019-03-26T20:20:56.784Z,7.80
2019-03-26T20:35:38.444Z,7.90
2019-03-26T20:38:11.126Z,7.80
2019-03-26T20:40:40.373Z,7.80
2019-03-26T20:43:09.497Z,7.70
2019-03-26T20:50:20.699Z,7.80
2019-03-26T20:51:16.939Z,7.80
2019-03-26T20:52:09.902Z,7.80
2019-03-26T20:53:45.997Z,7.70
2019-03-26T20:56:15.183Z,7.70
2019-03-26T20:58:44.580Z,7.70
2019-03-26T21:01:13.728Z,7.60
2019-03-26T21:03:42.780Z,7.60
2019-03-26T21:06:11.954Z,7.50
2019-03-26T21:08:41.141Z,7.50
2019-03-26T21:11:11.846Z,7.40
2019-03-26T21:13:50.773Z,7.40
2019-03-26T21:16:11.784Z,7.40
2019-03-26T21:18:40.972Z,7.40
2019-03-26T21:21:10.082Z,7.40
2019-03-26T21:23:39.275Z,7.50
2019-03-26T21:26:08.405Z,7.40
2019-03-26T21:28:37.628Z,7.50
2019-03-26T21:31:08.001Z,7.60
2019-03-26T21:33:37.178Z,7.40
2019-03-26T21:36:06.424Z,7.50
2019-03-26T21:38:35.609Z,7.50
2019-03-26T21:41:04.746Z,7.50
2019-03-26T21:43:33.910Z,7.50
2019-03-26T21:46:05.376Z,7.50
2019-03-26T21:48:34.548Z,7.50
2019-03-26T21:51:03.709Z,7.50
2019-03-26T21:53:32.875Z,7.50
2019-03-26T21:56:06.891Z,7.50
2019-03-26T21:58:32.856Z,7.50
2019-03-26T22:01:01.979Z,7.60
2019-03-26T22:03:31.146Z,7.50
2019-03-26T22:06:03.454Z,7.50
2019-03-26T22:08:32.589Z,7.50
2019-03-26T22:11:01.725Z,7.50
2019-03-26T22:13:30.831Z,7.50
2019-03-26T22:16:00.028Z,7.60
2019-03-26T22:18:29.179Z,7.60
2019-03-26T22:20:58.328Z,7.60
2019-03-26T22:23:38.022Z,7.60
2019-03-26T22:26:07.142Z,7.70
2019-03-26T22:31:12.862Z,7.60
2019-03-26T22:33:42.004Z,7.60
2019-03-26T22:36:11.032Z,7.60
2019-03-26T22:38:40.229Z,7.70
2019-03-26T22:41:09.327Z,7.70
2019-03-26T22:43:38.489Z,7.80
2019-03-26T22:46:07.850Z,7.70
2019-03-26T22:48:45.162Z,7.80
2019-03-26T22:51:14.342Z,7.70
2019-03-26T22:53:43.480Z,7.70
2019-03-26T22:56:12.626Z,7.80
2019-03-26T22:58:41.800Z,7.80
2019-03-26T23:01:11.030Z,7.80
2019-03-26T23:03:40.262Z,7.80
2019-03-26T23:06:09.445Z,7.80
2019-03-26T23:08:38.602Z,7.80
2019-03-26T23:11:07.713Z,7.70
2019-03-26T23:13:36.877Z,7.70
2019-03-26T23:16:06.209Z,7.70
2019-03-26T23:18:35.484Z,7.70
2019-03-26T23:21:06.291Z,7.70
2019-03-26T23:23:35.406Z,7.80
2019-03-26T23:26:04.546Z,7.70
2019-03-26T23:28:36.920Z,7.70
2019-03-26T23:31:08.047Z,7.70
2019-03-26T23:33:36.972Z,7.70
2019-03-26T23:36:06.150Z,7.70
2019-03-26T23:38:36.415Z,7.70
2019-03-26T23:41:05.539Z,7.70
2019-03-26T23:43:34.741Z,7.80
2019-03-26T23:46:03.882Z,7.70
2019-03-26T23:48:33.045Z,7.70
2019-03-26T23:51:02.185Z,7.70
2019-03-26T23:53:32.553Z,7.70
2019-03-26T23:56:01.629Z,7.70
2019-03-26T23:58:30.819Z,7.70
